sensor_id;sensor_type;location;lat;lon;timestamp;pressure;altitude;pressure_sealevel;temperature;humidity
41654;BME280;68687;52.030;7.110;2023-08-01T00:01:05;99152.88;;;15.22;100.00
41654;BME280;68687;52.030;7.110;2023-08-01T00:03:33;99139.81;;;15.35;100.00
41654;BME280;68687;52.030;7.110;2023-08-01T00:05:58;99142.13;;;15.27;100.00
41654;BME280;68687;52.030;7.110;2023-08-01T00:08:27;99142.13;;;15.27;100.00
41654;BME280;68687;52.030;7.110;2023-08-01T00:10:58;99135.97;;;15.31;100.00
41654;BME280;68687;52.030;7.110;2023-08-01T00:13:24;99127.53;;;15.28;100.00
41654;BME280;68687;52.030;7.110;2023-08-01T00:15:49;99126.53;;;15.34;100.00
41654;BME280;68687;52.030;7.110;2023-08-01T00:18:14;99128.41;;;15.33;100.00
41654;BME280;68687;52.030;7.110;2023-08-01T00:20:42;99126.63;;;15.39;100.00
41654;BME280;68687;52.030;7.110;2023-08-01T00:23:10;99108.00;;;15.42;100.00
41654;BME280;68687;52.030;7.110;2023-08-01T00:25:36;99110.41;;;15.39;100.00
41654;BME280;68687;52.030;7.110;2023-08-01T00:28:04;99112.09;;;15.45;100.00
41654;BME280;68687;52.030;7.110;2023-08-01T00:30:42;99109.56;;;15.38;100.00
41654;BME280;68687;52.030;7.110;2023-08-01T00:33:07;99100.56;;;15.33;100.00
41654;BME280;68687;52.030;7.110;2023-08-01T00:35:32;99093.41;;;15.43;100.00
41654;BME280;68687;52.030;7.110;2023-08-01T00:38:00;99087.50;;;15.46;100.00
41654;BME280;68687;52.030;7.110;2023-08-01T00:40:33;99092.66;;;15.48;100.00
41654;BME280;68687;52.030;7.110;2023-08-01T00:42:59;99082.91;;;15.47;100.00
41654;BME280;68687;52.030;7.110;2023-08-01T00:45:25;99088.75;;;15.39;100.00
41654;BME280;68687;52.030;7.110;2023-08-01T00:47:54;99075.31;;;15.44;100.00
41654;BME280;68687;52.030;7.110;2023-08-01T00:50:20;99083.78;;;15.53;100.00
41654;BME280;68687;52.030;7.110;2023-08-01T00:52:46;99080.19;;;15.47;100.00
41654;BME280;68687;52.030;7.110;2023-08-01T00:57:40;99074.34;;;15.55;100.00
41654;BME280;68687;52.030;7.110;2023-08-01T01:00:06;99072.66;;;15.49;100.00
41654;BME280;68687;52.030;7.110;2023-08-01T01:02:31;99065.59;;;15.48;100.00
41654;BME280;68687;52.030;7.110;2023-08-01T01:04:57;99065.91;;;15.52;100.00
41654;BME280;68687;52.030;7.110;2023-08-01T01:07:25;99052.13;;;15.53;100.00
41654;BME280;68687;52.030;7.110;2023-08-01T01:09:58;99059.25;;;15.59;100.00
41654;BME280;68687;52.030;7.110;2023-08-01T01:12:23;99054.66;;;15.60;100.00
41654;BME280;68687;52.030;7.110;2023-08-01T01:14:49;99043.84;;;15.60;100.00
41654;BME280;68687;52.030;7.110;2023-08-01T01:17:17;99040.50;;;15.53;100.00
41654;BME280;68687;52.030;7.110;2023-08-01T01:19:42;99045.41;;;15.56;100.00
41654;BME280;68687;52.030;7.110;2023-08-01T01:22:18;99046.16;;;15.51;100.00
41654;BME280;68687;52.030;7.110;2023-08-01T01:24:45;99047.19;;;15.67;100.00
41654;BME280;68687;52.030;7.110;2023-08-01T01:27:11;99033.91;;;15.65;100.00
41654;BME280;68687;52.030;7.110;2023-08-01T01:29:38;99039.72;;;15.57;100.00
41654;BME280;68687;52.030;7.110;2023-08-01T01:32:07;99039.25;;;15.60;100.00
41654;BME280;68687;52.030;7.110;2023-08-01T01:34:32;99036.81;;;15.59;100.00
41654;BME280;68687;52.030;7.110;2023-08-01T01:36:58;99032.69;;;15.56;100.00
41654;BME280;68687;52.030;7.110;2023-08-01T01:39:23;99026.31;;;15.62;100.00
41654;BME280;68687;52.030;7.110;2023-08-01T01:41:48;99020.13;;;15.67;100.00
41654;BME280;68687;52.030;7.110;2023-08-01T01:44:14;99018.50;;;15.66;100.00
41654;BME280;68687;52.030;7.110;2023-08-01T01:46:39;99021.22;;;15.66;100.00
41654;BME280;68687;52.030;7.110;2023-08-01T01:49:07;99013.97;;;15.71;100.00
41654;BME280;68687;52.030;7.110;2023-08-01T01:51:32;99006.06;;;15.65;100.00
41654;BME280;68687;52.030;7.110;2023-08-01T01:54:01;99007.72;;;15.71;100.00
41654;BME280;68687;52.030;7.110;2023-08-01T01:56:26;99003.91;;;15.67;100.00
41654;BME280;68687;52.030;7.110;2023-08-01T01:58:51;99005.63;;;15.78;100.00
41654;BME280;68687;52.030;7.110;2023-08-01T02:01:16;99003.44;;;15.75;100.00
41654;BME280;68687;52.030;7.110;2023-08-01T02:03:42;98995.75;;;15.62;100.00
41654;BME280;68687;52.030;7.110;2023-08-01T02:06:10;98999.31;;;15.67;100.00
41654;BME280;68687;52.030;7.110;2023-08-01T02:08:35;98992.78;;;15.63;100.00
41654;BME280;68687;52.030;7.110;2023-08-01T02:11:00;99008.34;;;15.56;100.00
41654;BME280;68687;52.030;7.110;2023-08-01T02:13:27;98992.28;;;15.66;100.00
41654;BME280;68687;52.030;7.110;2023-08-01T02:15:52;98999.41;;;15.56;100.00
41654;BME280;68687;52.030;7.110;2023-08-01T02:18:21;98996.97;;;15.54;100.00
41654;BME280;68687;52.030;7.110;2023-08-01T02:20:46;98996.63;;;15.45;100.00
41654;BME280;68687;52.030;7.110;2023-08-01T02:23:21;98992.75;;;15.36;100.00
41654;BME280;68687;52.030;7.110;2023-08-01T02:25:46;98999.88;;;15.48;100.00
41654;BME280;68687;52.030;7.110;2023-08-01T02:28:11;99001.31;;;15.55;100.00
41654;BME280;68687;52.030;7.110;2023-08-01T02:30:40;98996.94;;;15.49;100.00
41654;BME280;68687;52.030;7.110;2023-08-01T02:33:05;98992.28;;;15.44;100.00
41654;BME280;68687;52.030;7.110;2023-08-01T02:35:34;98993.66;;;15.47;100.00
41654;BME280;68687;52.030;7.110;2023-08-01T02:37:59;98999.13;;;15.52;100.00
41654;BME280;68687;52.030;7.110;2023-08-01T02:40:25;98993.50;;;15.32;100.00
41654;BME280;68687;52.030;7.110;2023-08-01T02:42:51;98994.06;;;15.34;100.00
41654;BME280;68687;52.030;7.110;2023-08-01T02:45:17;99002.25;;;15.39;100.00
41654;BME280;68687;52.030;7.110;2023-08-01T02:47:42;98997.25;;;15.31;100.00
41654;BME280;68687;52.030;7.110;2023-08-01T02:50:08;98996.75;;;15.34;100.00
41654;BME280;68687;52.030;7.110;2023-08-01T02:52:33;99004.44;;;15.42;100.00
41654;BME280;68687;52.030;7.110;2023-08-01T02:54:58;99005.38;;;15.31;100.00
41654;BME280;68687;52.030;7.110;2023-08-01T02:57:24;99010.16;;;15.24;100.00
41654;BME280;68687;52.030;7.110;2023-08-01T02:59:49;98999.88;;;15.21;100.00
41654;BME280;68687;52.030;7.110;2023-08-01T03:02:14;99003.94;;;15.23;100.00
41654;BME280;68687;52.030;7.110;2023-08-01T03:04:43;98998.78;;;15.22;100.00
41654;BME280;68687;52.030;7.110;2023-08-01T03:07:08;98997.72;;;15.23;100.00
41654;BME280;68687;52.030;7.110;2023-08-01T03:09:33;98999.91;;;15.26;100.00
41654;BME280;68687;52.030;7.110;2023-08-01T03:12:02;98997.94;;;15.16;100.00
41654;BME280;68687;52.030;7.110;2023-08-01T03:14:27;98997.66;;;15.18;100.00
41654;BME280;68687;52.030;7.110;2023-08-01T03:16:52;99008.22;;;15.19;100.00
41654;BME280;68687;52.030;7.110;2023-08-01T03:19:20;99006.72;;;15.06;100.00
41654;BME280;68687;52.030;7.110;2023-08-01T03:21:46;99007.41;;;15.19;100.00
41654;BME280;68687;52.030;7.110;2023-08-01T03:24:11;99004.66;;;15.13;100.00
41654;BME280;68687;52.030;7.110;2023-08-01T03:26:37;99007.91;;;15.15;100.00
41654;BME280;68687;52.030;7.110;2023-08-01T03:29:02;99008.44;;;15.12;100.00
41654;BME280;68687;52.030;7.110;2023-08-01T03:31:28;99014.97;;;15.17;100.00
41654;BME280;68687;52.030;7.110;2023-08-01T03:33:53;99005.22;;;15.15;100.00
41654;BME280;68687;52.030;7.110;2023-08-01T03:36:19;99018.59;;;15.05;100.00
41654;BME280;68687;52.030;7.110;2023-08-01T03:38:45;99012.25;;;14.95;100.00
41654;BME280;68687;52.030;7.110;2023-08-01T03:41:10;99017.59;;;15.11;100.00
41654;BME280;68687;52.030;7.110;2023-08-01T03:43:36;99022.94;;;15.06;100.00
41654;BME280;68687;52.030;7.110;2023-08-01T03:46:01;99024.81;;;15.06;100.00
41654;BME280;68687;52.030;7.110;2023-08-01T03:48:30;99013.44;;;15.04;100.00
41654;BME280;68687;52.030;7.110;2023-08-01T03:50:55;99017.47;;;15.01;100.00
41654;BME280;68687;52.030;7.110;2023-08-01T03:53:20;99023.69;;;15.02;100.00
41654;BME280;68687;52.030;7.110;2023-08-01T03:55:46;99032.84;;;15.01;100.00
41654;BME280;68687;52.030;7.110;2023-08-01T03:58:12;99020.16;;;15.01;100.00
41654;BME280;68687;52.030;7.110;2023-08-01T04:00:40;99022.94;;;15.06;100.00
41654;BME280;68687;52.030;7.110;2023-08-01T04:03:11;99027.28;;;15.07;100.00
41654;BME280;68687;52.030;7.110;2023-08-01T04:05:36;99028.28;;;15.01;100.00
41654;BME280;68687;52.030;7.110;2023-08-01T04:08:02;99029.59;;;14.99;100.00
41654;BME280;68687;52.030;7.110;2023-08-01T04:10:30;99024.69;;;14.96;100.00
41654;BME280;68687;52.030;7.110;2023-08-01T04:12:55;99022.69;;;14.86;100.00
41654;BME280;68687;52.030;7.110;2023-08-01T04:15:21;99028.78;;;14.98;100.00
41654;BME280;68687;52.030;7.110;2023-08-01T04:17:46;99034.19;;;14.98;100.00
41654;BME280;68687;52.030;7.110;2023-08-01T04:20:11;99035.81;;;14.99;100.00
41654;BME280;68687;52.030;7.110;2023-08-01T04:22:37;99023.50;;;14.87;100.00
41654;BME280;68687;52.030;7.110;2023-08-01T04:25:03;99023.06;;;14.95;100.00
41654;BME280;68687;52.030;7.110;2023-08-01T04:27:31;99036.38;;;15.01;100.00
41654;BME280;68687;52.030;7.110;2023-08-01T04:30:00;99035.25;;;14.97;100.00
41654;BME280;68687;52.030;7.110;2023-08-01T04:32:25;99035.50;;;14.96;100.00
41654;BME280;68687;52.030;7.110;2023-08-01T04:34:50;99034.50;;;15.02;100.00
41654;BME280;68687;52.030;7.110;2023-08-01T04:37:16;99032.03;;;15.00;100.00
41654;BME280;68687;52.030;7.110;2023-08-01T04:39:47;99044.47;;;15.01;100.00
41654;BME280;68687;52.030;7.110;2023-08-01T04:42:12;99048.50;;;14.99;100.00
41654;BME280;68687;52.030;7.110;2023-08-01T04:44:40;99042.34;;;15.03;100.00
41654;BME280;68687;52.030;7.110;2023-08-01T04:47:06;99038.25;;;15.01;100.00
41654;BME280;68687;52.030;7.110;2023-08-01T04:49:31;99046.13;;;15.02;100.00
41654;BME280;68687;52.030;7.110;2023-08-01T04:51:59;99047.75;;;15.03;100.00
41654;BME280;68687;52.030;7.110;2023-08-01T04:54:28;99047.69;;;14.98;100.00
41654;BME280;68687;52.030;7.110;2023-08-01T04:56:53;99042.34;;;15.03;100.00
41654;BME280;68687;52.030;7.110;2023-08-01T04:59:19;99056.31;;;14.95;100.00
41654;BME280;68687;52.030;7.110;2023-08-01T05:01:44;99052.09;;;15.04;100.00
41654;BME280;68687;52.030;7.110;2023-08-01T05:04:09;99043.16;;;15.04;100.00
41654;BME280;68687;52.030;7.110;2023-08-01T05:06:34;99048.41;;;15.10;100.00
41654;BME280;68687;52.030;7.110;2023-08-01T05:09:00;99050.59;;;15.13;100.00
41654;BME280;68687;52.030;7.110;2023-08-01T05:11:25;99043.16;;;15.04;100.00
41654;BME280;68687;52.030;7.110;2023-08-01T05:13:56;99051.66;;;15.12;100.00
41654;BME280;68687;52.030;7.110;2023-08-01T05:16:22;99042.56;;;15.19;100.00
41654;BME280;68687;52.030;7.110;2023-08-01T05:18:47;99043.25;;;15.09;100.00
41654;BME280;68687;52.030;7.110;2023-08-01T05:21:12;99049.53;;;15.14;100.00
41654;BME280;68687;52.030;7.110;2023-08-01T05:23:37;99052.50;;;15.13;100.00
41654;BME280;68687;52.030;7.110;2023-08-01T05:29:08;99055.09;;;15.30;100.00
41654;BME280;68687;52.030;7.110;2023-08-01T05:31:34;99055.06;;;15.25;100.00
41654;BME280;68687;52.030;7.110;2023-08-01T05:33:59;99061.97;;;15.15;100.00
41654;BME280;68687;52.030;7.110;2023-08-01T05:36:24;99064.84;;;15.31;100.00
41654;BME280;68687;52.030;7.110;2023-08-01T05:38:50;99065.25;;;15.18;100.00
41654;BME280;68687;52.030;7.110;2023-08-01T05:41:15;99069.53;;;15.13;100.00
41654;BME280;68687;52.030;7.110;2023-08-01T05:43:40;99064.53;;;15.27;100.00
41654;BME280;68687;52.030;7.110;2023-08-01T05:46:06;99076.13;;;15.23;100.00
41654;BME280;68687;52.030;7.110;2023-08-01T05:48:31;99079.00;;;15.16;100.00
41654;BME280;68687;52.030;7.110;2023-08-01T05:50:59;99078.19;;;15.15;100.00
41654;BME280;68687;52.030;7.110;2023-08-01T05:53:24;99079.94;;;15.27;100.00
41654;BME280;68687;52.030;7.110;2023-08-01T05:55:50;99083.59;;;15.15;100.00
41654;BME280;68687;52.030;7.110;2023-08-01T05:58:15;99089.31;;;15.19;100.00
41654;BME280;68687;52.030;7.110;2023-08-01T06:00:41;99090.19;;;15.25;100.00
41654;BME280;68687;52.030;7.110;2023-08-01T06:03:06;99083.91;;;15.19;100.00
41654;BME280;68687;52.030;7.110;2023-08-01T06:05:35;99089.13;;;15.26;100.00
41654;BME280;68687;52.030;7.110;2023-08-01T06:08:00;99083.34;;;15.17;100.00
41654;BME280;68687;52.030;7.110;2023-08-01T06:10:26;99090.44;;;15.23;100.00
41654;BME280;68687;52.030;7.110;2023-08-01T06:12:54;99104.78;;;15.24;100.00
41654;BME280;68687;52.030;7.110;2023-08-01T06:15:20;99090.97;;;15.03;100.00
41654;BME280;68687;52.030;7.110;2023-08-01T06:17:46;99086.03;;;14.78;100.00
41654;BME280;68687;52.030;7.110;2023-08-01T06:20:11;99087.22;;;14.82;100.00
41654;BME280;68687;52.030;7.110;2023-08-01T06:22:37;99077.22;;;14.83;100.00
41654;BME280;68687;52.030;7.110;2023-08-01T06:25:03;99072.22;;;14.75;100.00
41654;BME280;68687;52.030;7.110;2023-08-01T06:27:28;99077.13;;;14.78;100.00
41654;BME280;68687;52.030;7.110;2023-08-01T06:29:54;99081.13;;;14.75;100.00
41654;BME280;68687;52.030;7.110;2023-08-01T06:32:19;99069.44;;;14.70;100.00
41654;BME280;68687;52.030;7.110;2023-08-01T06:34:44;99068.94;;;14.73;100.00
41654;BME280;68687;52.030;7.110;2023-08-01T06:37:10;99078.75;;;14.79;100.00
41654;BME280;68687;52.030;7.110;2023-08-01T06:39:35;99084.00;;;14.86;100.00
41654;BME280;68687;52.030;7.110;2023-08-01T06:42:00;99093.81;;;14.75;100.00
41654;BME280;68687;52.030;7.110;2023-08-01T06:44:26;99082.38;;;14.68;100.00
41654;BME280;68687;52.030;7.110;2023-08-01T06:46:52;99088.94;;;14.72;100.00
41654;BME280;68687;52.030;7.110;2023-08-01T06:49:17;99090.50;;;14.68;100.00
41654;BME280;68687;52.030;7.110;2023-08-01T06:51:42;99090.25;;;14.69;100.00
41654;BME280;68687;52.030;7.110;2023-08-01T06:54:08;99091.34;;;14.90;100.00
41654;BME280;68687;52.030;7.110;2023-08-01T06:56:39;99096.25;;;14.93;100.00
41654;BME280;68687;52.030;7.110;2023-08-01T06:59:07;99083.69;;;15.04;100.00
41654;BME280;68687;52.030;7.110;2023-08-01T07:01:36;99080.34;;;15.13;100.00
41654;BME280;68687;52.030;7.110;2023-08-01T07:04:09;99086.47;;;15.31;100.00
41654;BME280;68687;52.030;7.110;2023-08-01T07:06:34;99080.03;;;15.81;100.00
41654;BME280;68687;52.030;7.110;2023-08-01T07:09:00;99083.06;;;15.84;100.00
41654;BME280;68687;52.030;7.110;2023-08-01T07:11:25;99084.59;;;16.02;100.00
41654;BME280;68687;52.030;7.110;2023-08-01T07:13:53;99082.84;;;16.18;100.00
41654;BME280;68687;52.030;7.110;2023-08-01T07:16:19;99082.19;;;16.37;100.00
41654;BME280;68687;52.030;7.110;2023-08-01T07:18:47;99082.69;;;16.29;100.00
41654;BME280;68687;52.030;7.110;2023-08-01T07:21:13;99090.66;;;16.14;100.00
41654;BME280;68687;52.030;7.110;2023-08-01T07:23:42;99088.00;;;16.19;100.00
41654;BME280;68687;52.030;7.110;2023-08-01T07:26:07;99086.28;;;16.40;100.00
41654;BME280;68687;52.030;7.110;2023-08-01T07:28:35;99085.59;;;16.55;100.00
41654;BME280;68687;52.030;7.110;2023-08-01T07:31:02;99092.56;;;16.46;100.00
41654;BME280;68687;52.030;7.110;2023-08-01T07:33:29;99082.38;;;16.26;100.00
41654;BME280;68687;52.030;7.110;2023-08-01T07:35:54;99083.28;;;16.36;100.00
41654;BME280;68687;52.030;7.110;2023-08-01T07:38:19;99084.00;;;16.64;100.00
41654;BME280;68687;52.030;7.110;2023-08-01T07:40:45;99084.50;;;16.56;100.00
41654;BME280;68687;52.030;7.110;2023-08-01T07:43:10;99086.97;;;16.57;100.00
41654;BME280;68687;52.030;7.110;2023-08-01T07:45:36;99085.69;;;16.33;100.00
41654;BME280;68687;52.030;7.110;2023-08-01T07:48:02;99085.44;;;16.39;100.00
41654;BME280;68687;52.030;7.110;2023-08-01T07:50:27;99098.47;;;16.43;100.00
41654;BME280;68687;52.030;7.110;2023-08-01T07:52:59;99091.53;;;16.52;100.00
41654;BME280;68687;52.030;7.110;2023-08-01T07:55:24;99088.94;;;16.67;100.00
41654;BME280;68687;52.030;7.110;2023-08-01T07:57:49;99095.94;;;16.63;100.00
41654;BME280;68687;52.030;7.110;2023-08-01T08:00:18;99102.03;;;16.75;100.00
41654;BME280;68687;52.030;7.110;2023-08-01T08:02:45;99098.16;;;16.66;100.00
41654;BME280;68687;52.030;7.110;2023-08-01T08:05:13;99099.97;;;16.60;100.00
41654;BME280;68687;52.030;7.110;2023-08-01T08:07:39;99103.09;;;16.74;100.00
41654;BME280;68687;52.030;7.110;2023-08-01T08:10:05;99097.31;;;17.03;100.00
41654;BME280;68687;52.030;7.110;2023-08-01T08:12:30;99104.13;;;17.68;100.00
41654;BME280;68687;52.030;7.110;2023-08-01T08:14:56;99107.13;;;17.71;100.00
41654;BME280;68687;52.030;7.110;2023-08-01T08:17:21;99112.38;;;18.29;100.00
41654;BME280;68687;52.030;7.110;2023-08-01T08:19:46;99116.16;;;17.92;100.00
41654;BME280;68687;52.030;7.110;2023-08-01T08:22:12;99105.06;;;18.49;100.00
41654;BME280;68687;52.030;7.110;2023-08-01T08:24:37;99111.31;;;18.50;100.00
41654;BME280;68687;52.030;7.110;2023-08-01T08:27:05;99103.97;;;18.50;100.00
41654;BME280;68687;52.030;7.110;2023-08-01T08:29:37;99100.72;;;18.48;100.00
41654;BME280;68687;52.030;7.110;2023-08-01T08:32:06;99105.88;;;18.30;100.00
41654;BME280;68687;52.030;7.110;2023-08-01T08:34:31;99104.25;;;18.18;100.00
41654;BME280;68687;52.030;7.110;2023-08-01T08:36:59;99100.66;;;17.82;100.00
41654;BME280;68687;52.030;7.110;2023-08-01T08:39:24;99089.53;;;17.89;100.00
41654;BME280;68687;52.030;7.110;2023-08-01T08:41:51;99109.16;;;18.37;100.00
41654;BME280;68687;52.030;7.110;2023-08-01T08:44:18;99111.06;;;18.82;100.00
41654;BME280;68687;52.030;7.110;2023-08-01T08:46:51;99118.41;;;18.36;97.83
41654;BME280;68687;52.030;7.110;2023-08-01T08:49:18;99116.41;;;17.96;99.55
41654;BME280;68687;52.030;7.110;2023-08-01T08:51:46;99127.22;;;17.70;100.00
41654;BME280;68687;52.030;7.110;2023-08-01T08:54:15;99122.66;;;17.86;100.00
41654;BME280;68687;52.030;7.110;2023-08-01T08:56:44;99126.53;;;18.46;100.00
41654;BME280;68687;52.030;7.110;2023-08-01T08:59:16;99123.78;;;19.07;100.00
41654;BME280;68687;52.030;7.110;2023-08-01T09:01:41;99121.63;;;18.89;100.00
41654;BME280;68687;52.030;7.110;2023-08-01T09:04:06;99119.34;;;19.47;98.89
41654;BME280;68687;52.030;7.110;2023-08-01T09:06:35;99113.09;;;20.00;100.00
41654;BME280;68687;52.030;7.110;2023-08-01T09:09:08;99114.50;;;19.93;94.17
41654;BME280;68687;52.030;7.110;2023-08-01T09:11:48;99101.06;;;20.46;94.60
41654;BME280;68687;52.030;7.110;2023-08-01T09:14:14;99103.84;;;20.35;90.61
41654;BME280;68687;52.030;7.110;2023-08-01T09:16:40;99104.91;;;20.74;90.53
41654;BME280;68687;52.030;7.110;2023-08-01T09:19:20;99103.41;;;20.91;88.07
41654;BME280;68687;52.030;7.110;2023-08-01T09:21:46;99108.66;;;21.12;86.58
41654;BME280;68687;52.030;7.110;2023-08-01T09:24:20;99105.78;;;20.98;86.92
41654;BME280;68687;52.030;7.110;2023-08-01T09:26:47;99105.50;;;20.71;84.32
41654;BME280;68687;52.030;7.110;2023-08-01T09:29:13;99111.06;;;20.16;89.59
41654;BME280;68687;52.030;7.110;2023-08-01T09:31:43;99121.75;;;19.58;90.37
41654;BME280;68687;52.030;7.110;2023-08-01T09:34:20;99133.56;;;19.08;92.85
41654;BME280;68687;52.030;7.110;2023-08-01T09:36:45;99142.88;;;18.76;94.43
41654;BME280;68687;52.030;7.110;2023-08-01T09:39:37;99140.09;;;18.61;97.65
41654;BME280;68687;52.030;7.110;2023-08-01T09:42:09;99132.81;;;18.67;98.25
41654;BME280;68687;52.030;7.110;2023-08-01T09:44:34;99140.09;;;18.61;98.50
41654;BME280;68687;52.030;7.110;2023-08-01T09:47:02;99140.13;;;18.46;100.00
41654;BME280;68687;52.030;7.110;2023-08-01T09:49:28;99145.88;;;18.65;97.89
41654;BME280;68687;52.030;7.110;2023-08-01T09:51:59;99150.19;;;18.45;97.52
41654;BME280;68687;52.030;7.110;2023-08-01T09:54:29;99158.00;;;18.16;99.52
41654;BME280;68687;52.030;7.110;2023-08-01T09:56:54;99165.34;;;18.21;100.00
41654;BME280;68687;52.030;7.110;2023-08-01T09:59:22;99173.72;;;18.04;98.83
41654;BME280;68687;52.030;7.110;2023-08-01T10:01:50;99157.06;;;17.70;100.00
41654;BME280;68687;52.030;7.110;2023-08-01T10:04:18;99150.94;;;17.43;100.00
41654;BME280;68687;52.030;7.110;2023-08-01T10:06:46;99164.69;;;17.26;100.00
41654;BME280;68687;52.030;7.110;2023-08-01T10:09:13;99172.13;;;16.98;100.00
41654;BME280;68687;52.030;7.110;2023-08-01T10:11:40;99168.63;;;17.03;100.00
41654;BME280;68687;52.030;7.110;2023-08-01T10:14:07;99160.03;;;16.79;100.00
41654;BME280;68687;52.030;7.110;2023-08-01T10:16:32;99165.28;;;16.96;100.00
41654;BME280;68687;52.030;7.110;2023-08-01T10:18:59;99152.84;;;17.47;100.00
41654;BME280;68687;52.030;7.110;2023-08-01T10:21:25;99162.63;;;18.11;100.00
41654;BME280;68687;52.030;7.110;2023-08-01T10:23:59;99156.19;;;18.63;99.80
41654;BME280;68687;52.030;7.110;2023-08-01T10:26:25;99155.94;;;18.64;100.00
41654;BME280;68687;52.030;7.110;2023-08-01T10:28:51;99152.56;;;19.33;98.89
41654;BME280;68687;52.030;7.110;2023-08-01T10:31:18;99155.63;;;19.91;98.84
41654;BME280;68687;52.030;7.110;2023-08-01T10:33:45;99167.72;;;19.65;94.52
41654;BME280;68687;52.030;7.110;2023-08-01T10:36:25;99163.72;;;19.27;94.13
41654;BME280;68687;52.030;7.110;2023-08-01T10:38:54;99173.28;;;19.09;94.11
41654;BME280;68687;52.030;7.110;2023-08-01T10:41:34;99176.56;;;19.01;95.34
41654;BME280;68687;52.030;7.110;2023-08-01T10:44:13;99162.09;;;19.26;94.59
41654;BME280;68687;52.030;7.110;2023-08-01T10:46:52;99159.13;;;19.22;94.96
41654;BME280;68687;52.030;7.110;2023-08-01T10:49:19;99164.59;;;18.97;93.14
41654;BME280;68687;52.030;7.110;2023-08-01T10:51:45;99155.34;;;18.57;94.72
41654;BME280;68687;52.030;7.110;2023-08-01T10:54:25;99160.78;;;18.88;94.74
41654;BME280;68687;52.030;7.110;2023-08-01T10:56:55;99165.19;;;18.63;94.91
41654;BME280;68687;52.030;7.110;2023-08-01T10:59:23;99162.47;;;18.63;95.08
41654;BME280;68687;52.030;7.110;2023-08-01T11:01:50;99164.31;;;18.47;93.90
41654;BME280;68687;52.030;7.110;2023-08-01T11:04:17;99167.31;;;18.81;91.61
41654;BME280;68687;52.030;7.110;2023-08-01T11:06:47;99156.75;;;18.70;93.36
41654;BME280;68687;52.030;7.110;2023-08-01T11:11:54;99150.75;;;20.32;90.31
41654;BME280;68687;52.030;7.110;2023-08-01T11:14:24;99153.06;;;20.54;88.51
41654;BME280;68687;52.030;7.110;2023-08-01T11:16:50;99170.84;;;20.02;88.31
41654;BME280;68687;52.030;7.110;2023-08-01T11:19:38;99165.81;;;19.65;90.76
41654;BME280;68687;52.030;7.110;2023-08-01T11:22:10;99180.91;;;19.07;92.25
41654;BME280;68687;52.030;7.110;2023-08-01T11:24:50;99196.94;;;19.13;92.07
41654;BME280;68687;52.030;7.110;2023-08-01T11:27:15;99207.81;;;19.08;88.78
41654;BME280;68687;52.030;7.110;2023-08-01T11:29:40;99212.34;;;18.32;87.26
41654;BME280;68687;52.030;7.110;2023-08-01T11:32:06;99205.00;;;18.22;89.04
41654;BME280;68687;52.030;7.110;2023-08-01T11:34:47;99203.66;;;18.19;88.95
41654;BME280;68687;52.030;7.110;2023-08-01T11:37:18;99203.66;;;18.30;88.58
41654;BME280;68687;52.030;7.110;2023-08-01T11:39:44;99205.34;;;18.61;88.45
41654;BME280;68687;52.030;7.110;2023-08-01T11:42:16;99212.41;;;18.52;87.40
41654;BME280;68687;52.030;7.110;2023-08-01T11:44:48;99216.81;;;18.94;87.68
41654;BME280;68687;52.030;7.110;2023-08-01T11:47:15;99209.72;;;19.08;87.91
41654;BME280;68687;52.030;7.110;2023-08-01T11:49:48;99217.31;;;19.36;85.30
41654;BME280;68687;52.030;7.110;2023-08-01T11:52:29;99225.50;;;19.01;85.52
41654;BME280;68687;52.030;7.110;2023-08-01T11:55:00;99216.78;;;18.89;88.08
41654;BME280;68687;52.030;7.110;2023-08-01T11:57:25;99212.66;;;18.50;89.88
41654;BME280;68687;52.030;7.110;2023-08-01T11:59:55;99220.28;;;18.53;90.52
41654;BME280;68687;52.030;7.110;2023-08-01T12:02:30;99225.44;;;18.50;89.74
41654;BME280;68687;52.030;7.110;2023-08-01T12:04:55;99218.94;;;18.56;89.89
41654;BME280;68687;52.030;7.110;2023-08-01T12:07:27;99219.47;;;18.43;91.94
41654;BME280;68687;52.030;7.110;2023-08-01T12:10:01;99217.03;;;18.51;93.04
41654;BME280;68687;52.030;7.110;2023-08-01T12:12:27;99215.63;;;18.34;91.83
41654;BME280;68687;52.030;7.110;2023-08-01T12:14:56;99217.22;;;18.09;93.46
41654;BME280;68687;52.030;7.110;2023-08-01T12:17:22;99217.22;;;18.25;92.32
41654;BME280;68687;52.030;7.110;2023-08-01T12:19:47;99217.75;;;18.16;93.39
41654;BME280;68687;52.030;7.110;2023-08-01T12:22:13;99222.38;;;18.11;94.46
41654;BME280;68687;52.030;7.110;2023-08-01T12:24:39;99222.69;;;18.35;94.96
41654;BME280;68687;52.030;7.110;2023-08-01T12:27:07;99220.06;;;18.80;94.58
41654;BME280;68687;52.030;7.110;2023-08-01T12:29:38;99224.41;;;19.02;95.92
41654;BME280;68687;52.030;7.110;2023-08-01T12:32:04;99225.50;;;19.11;94.45
41654;BME280;68687;52.030;7.110;2023-08-01T12:34:29;99221.94;;;19.15;91.37
41654;BME280;68687;52.030;7.110;2023-08-01T12:36:55;99228.22;;;19.06;92.57
41654;BME280;68687;52.030;7.110;2023-08-01T12:39:23;99222.75;;;19.16;91.28
41654;BME280;68687;52.030;7.110;2023-08-01T12:41:51;99235.84;;;18.83;92.17
41654;BME280;68687;52.030;7.110;2023-08-01T12:44:20;99232.84;;;18.95;92.70
41654;BME280;68687;52.030;7.110;2023-08-01T12:46:45;99221.94;;;19.36;92.61
41654;BME280;68687;52.030;7.110;2023-08-01T12:49:11;99228.19;;;19.47;91.59
41654;BME280;68687;52.030;7.110;2023-08-01T12:51:36;99226.50;;;19.71;91.03
41654;BME280;68687;52.030;7.110;2023-08-01T12:54:01;99218.09;;;19.57;88.85
41654;BME280;68687;52.030;7.110;2023-08-01T12:56:39;99228.13;;;19.77;87.20
41654;BME280;68687;52.030;7.110;2023-08-01T12:59:04;99229.53;;;19.59;85.54
41654;BME280;68687;52.030;7.110;2023-08-01T13:01:35;99231.97;;;19.61;87.80